createdAt,value
2023-01-09T00:01:42.803Z,98165.75
2023-01-09T00:04:11.550Z,98173.44
2023-01-09T00:06:42.533Z,98170.50
2023-01-09T00:09:11.273Z,98167.84
2023-01-09T00:11:39.688Z,98159.13
2023-01-09T00:14:09.202Z,98165.75
2023-01-09T00:16:40.668Z,98152.25
2023-01-09T00:19:09.331Z,98155.44
2023-01-09T00:21:38.722Z,98152.00
2023-01-09T00:24:08.518Z,98145.91
2023-01-09T00:26:36.896Z,98144.06
2023-01-09T00:29:07.187Z,98131.63
2023-01-09T00:31:35.548Z,98125.28
2023-01-09T00:34:10.592Z,98118.13
2023-01-09T00:36:39.008Z,98118.13
2023-01-09T00:39:07.801Z,98109.41
2023-01-09T00:41:40.550Z,98116.53
2023-01-09T00:44:14.373Z,98110.47
2023-01-09T00:46:46.589Z,98122.09
2023-01-09T00:49:18.219Z,98111.50
2023-01-09T00:51:46.659Z,98108.84
2023-01-09T00:54:18.415Z,98112.31
2023-01-09T00:56:47.204Z,98109.94
2023-01-09T00:59:15.633Z,98117.88
2023-01-09T01:01:44.132Z,98118.94
2023-01-09T01:04:30.189Z,98106.00
2023-01-09T01:07:17.268Z,98111.81
2023-01-09T01:09:45.672Z,98120.00
2023-01-09T01:12:14.021Z,98112.88
2023-01-09T01:14:42.456Z,98117.38
2023-01-09T01:17:10.772Z,98118.97
2023-01-09T01:19:39.090Z,98123.44
2023-01-09T01:22:08.966Z,98126.38
2023-01-09T01:24:37.376Z,98108.66
2023-01-09T01:27:05.823Z,98125.31
2023-01-09T01:29:34.783Z,98115.50
2023-01-09T01:32:03.181Z,98113.69
2023-01-09T01:34:31.640Z,98126.09
2023-01-09T01:37:00.036Z,98116.59
2023-01-09T01:39:29.727Z,98123.72
2023-01-09T01:41:58.113Z,98135.63
2023-01-09T01:45:00.934Z,98143.31
2023-01-09T01:47:39.945Z,98146.75
2023-01-09T01:50:17.004Z,98140.66
2023-01-09T01:52:49.587Z,98134.88
2023-01-09T01:55:20.170Z,98139.63
2023-01-09T01:57:53.206Z,98140.69
2023-01-09T02:00:28.608Z,98143.06
2023-01-09T02:02:57.046Z,98144.91
2023-01-09T02:05:25.504Z,98142.03
2023-01-09T02:07:53.836Z,98141.19
2023-01-09T02:10:24.561Z,98147.81
2023-01-09T02:12:53.044Z,98140.16
2023-01-09T02:15:21.990Z,98136.72
2023-01-09T02:18:23.404Z,98140.94
2023-01-09T02:21:00.299Z,98144.41
2023-01-09T02:24:09.784Z,98132.50
2023-01-09T02:27:06.201Z,98131.97
2023-01-09T02:30:29.617Z,98135.16
2023-01-09T02:33:22.044Z,98119.81
2023-01-09T02:36:13.311Z,98130.13
2023-01-09T02:38:57.136Z,98132.22
2023-01-09T02:41:36.114Z,98131.19
2023-01-09T02:44:17.294Z,98122.19
2023-01-09T02:46:45.910Z,98122.69
2023-01-09T02:49:18.025Z,98129.06
2023-01-09T02:51:54.272Z,98146.75
2023-01-09T02:54:34.610Z,98130.88
2023-01-09T02:57:19.631Z,98156.53
2023-01-09T03:00:08.258Z,98156.53
2023-01-09T03:02:48.919Z,98155.50
2023-01-09T03:05:26.784Z,98158.16
2023-01-09T03:08:02.238Z,98143.84
2023-01-09T03:10:38.294Z,98160.22
2023-01-09T03:13:11.864Z,98163.94
2023-01-09T03:15:42.983Z,98154.44
2023-01-09T03:18:15.109Z,98163.97
2023-01-09T03:20:45.866Z,98168.72
2023-01-09T03:23:14.247Z,98185.63
2023-01-09T03:25:42.671Z,98195.72
2023-01-09T03:28:27.482Z,98197.03
2023-01-09T03:30:56.254Z,98190.41
2023-01-09T03:33:24.543Z,98200.75
2023-01-09T03:35:54.232Z,98206.03
2023-01-09T03:38:22.571Z,98203.09
2023-01-09T03:40:51.374Z,98205.50
2023-01-09T03:43:19.739Z,98226.66
2023-01-09T03:45:48.177Z,98223.47
2023-01-09T03:48:16.682Z,98238.03
2023-01-09T03:50:47.315Z,98241.19
2023-01-09T03:53:17.977Z,98245.69
2023-01-09T03:55:47.770Z,98248.59
2023-01-09T03:58:16.673Z,98259.44
2023-01-09T04:00:48.795Z,98261.28
2023-01-09T04:03:19.128Z,98263.94
2023-01-09T04:05:49.730Z,98278.75
2023-01-09T04:08:19.949Z,98285.88
2023-01-09T04:10:48.905Z,98296.22
2023-01-09T04:13:17.350Z,98300.72
2023-01-09T04:15:45.835Z,98297.25
2023-01-09T04:18:14.253Z,98307.84
2023-01-09T04:20:43.164Z,98312.34
2023-01-09T04:23:11.540Z,98323.19
2023-01-09T04:25:41.361Z,98326.09
2023-01-09T04:28:09.759Z,98332.47
2023-01-09T04:30:38.303Z,98360.22
2023-01-09T04:33:06.633Z,98351.78
2023-01-09T04:35:34.994Z,98373.72
2023-01-09T04:38:03.395Z,98381.91
2023-01-09T04:40:31.850Z,98384.03
2023-01-09T04:43:01.675Z,98373.97
2023-01-09T04:45:30.259Z,98374.25
2023-01-09T04:47:58.644Z,98386.94
2023-01-09T04:50:26.933Z,98387.22
2023-01-09T04:52:55.231Z,98383.75
2023-01-09T04:55:23.706Z,98397.78
2023-01-09T04:57:52.058Z,98397.25
2023-01-09T05:00:22.077Z,98400.97
2023-01-09T05:02:50.465Z,98408.34
2023-01-09T05:05:18.968Z,98425.00
2023-01-09T05:07:47.333Z,98413.63
2023-01-09T05:10:15.825Z,98426.84
2023-01-09T05:12:45.478Z,98443.25
2023-01-09T05:15:14.031Z,98445.63
2023-01-09T05:17:43.795Z,98462.81
2023-01-09T05:20:12.594Z,98462.81
2023-01-09T05:22:40.953Z,98463.84
2023-01-09T05:25:10.168Z,98465.97
2023-01-09T05:27:38.597Z,98466.75
2023-01-09T05:30:08.410Z,98470.19
2023-01-09T05:32:36.777Z,98475.50
2023-01-09T05:35:07.835Z,98478.91
2023-01-09T05:37:36.185Z,98488.44
2023-01-09T05:40:05.403Z,98489.75
2023-01-09T05:42:33.975Z,98477.59
2023-01-09T05:45:02.286Z,98489.75
2023-01-09T05:47:30.601Z,98505.59
2023-01-09T05:49:58.949Z,98502.44
2023-01-09T05:52:28.722Z,98516.72
2023-01-09T05:54:57.072Z,98501.66
2023-01-09T05:57:25.460Z,98503.50
2023-01-09T05:59:53.759Z,98508.25
2023-01-09T06:02:22.445Z,98508.50
2023-01-09T06:04:50.811Z,98504.25
2023-01-09T06:07:22.123Z,98515.09
2023-01-09T06:09:52.982Z,98522.47
2023-01-09T06:12:21.363Z,98528.03
2023-01-09T06:14:49.705Z,98540.19
2023-01-09T06:17:18.087Z,98547.06
2023-01-09T06:19:46.471Z,98543.63
2023-01-09T06:22:15.019Z,98555.25
2023-01-09T06:24:43.341Z,98552.06
2023-01-09T06:27:13.776Z,98545.97
2023-01-09T06:29:42.276Z,98546.50
2023-01-09T06:32:10.688Z,98540.91
2023-01-09T06:34:38.992Z,98543.03
2023-01-09T06:37:07.378Z,98549.88
2023-01-09T06:39:35.900Z,98571.53
2023-01-09T06:42:04.708Z,98565.97
2023-01-09T06:44:36.645Z,98564.13
2023-01-09T06:47:05.211Z,98561.97
2023-01-09T06:49:33.577Z,98561.44
2023-01-09T06:52:05.571Z,98561.94
2023-01-09T06:54:34.181Z,98551.91
2023-01-09T06:57:02.955Z,98560.84
2023-01-09T06:59:31.277Z,98555.56
2023-01-09T07:02:01.038Z,98557.44
2023-01-09T07:04:29.468Z,98556.63
2023-01-09T07:06:57.807Z,98551.34
2023-01-09T07:09:26.130Z,98556.09
2023-01-09T07:11:54.475Z,98559.25
2023-01-09T07:14:22.791Z,98551.84
2023-01-09T07:16:51.193Z,98550.75
2023-01-09T07:19:20.867Z,98552.28
2023-01-09T07:21:49.200Z,98567.56
2023-01-09T07:24:17.534Z,98577.84
2023-01-09T07:26:46.084Z,98576.50
2023-01-09T07:29:14.473Z,98573.34
2023-01-09T07:31:42.811Z,98578.84
2023-01-09T07:34:11.134Z,98577.56
2023-01-09T07:36:40.846Z,98581.53
2023-01-09T07:39:09.644Z,98578.91
2023-01-09T07:41:38.010Z,98588.69
2023-01-09T07:44:11.251Z,98583.13
2023-01-09T07:46:40.327Z,98577.84
2023-01-09T07:49:08.973Z,98583.91
2023-01-09T07:51:39.201Z,98583.91
2023-01-09T07:54:09.006Z,98592.91
2023-01-09T07:56:37.485Z,98588.69
2023-01-09T07:59:05.903Z,98588.69
2023-01-09T08:01:34.425Z,98599.25
2023-01-09T08:04:02.893Z,98596.59
2023-01-09T08:06:31.579Z,98594.75
2023-01-09T08:09:00.869Z,98598.19
2023-01-09T08:11:30.678Z,98603.47
2023-01-09T08:13:59.024Z,98598.72
2023-01-09T08:16:27.421Z,98605.06
2023-01-09T08:18:55.731Z,98618.81
2023-01-09T08:21:24.666Z,98607.69
2023-01-09T08:23:53.046Z,98606.63
2023-01-09T08:26:21.528Z,98613.75
2023-01-09T08:28:51.212Z,98610.34
2023-01-09T08:31:19.568Z,98608.78
2023-01-09T08:33:47.880Z,98610.41
2023-01-09T08:36:16.559Z,98610.41
2023-01-09T08:38:44.978Z,98613.03
2023-01-09T08:41:31.038Z,98626.25
2023-01-09T08:44:18.286Z,98626.47
2023-01-09T08:47:04.034Z,98629.38
2023-01-09T08:49:32.481Z,98624.63
2023-01-09T08:52:00.888Z,98634.16
2023-01-09T08:54:31.213Z,98640.00
2023-01-09T08:56:59.896Z,98648.47
2023-01-09T08:59:29.684Z,98650.84
2023-01-09T09:01:58.398Z,98645.34
2023-01-09T09:04:26.839Z,98646.94
2023-01-09T09:06:55.284Z,98649.31
2023-01-09T09:09:25.252Z,98653.00
2023-01-09T09:11:53.650Z,98649.56
2023-01-09T09:14:39.478Z,98657.22
2023-01-09T09:17:09.274Z,98664.84
2023-01-09T09:19:39.533Z,98662.78
2023-01-09T09:22:07.954Z,98660.63
2023-01-09T09:24:36.393Z,98660.13
2023-01-09T09:27:12.117Z,98669.66
2023-01-09T09:29:40.523Z,98666.78
2023-01-09T09:32:10.299Z,98665.16
2023-01-09T09:34:38.756Z,98667.56
2023-01-09T09:37:07.195Z,98670.22
2023-01-09T09:39:35.714Z,98679.97
2023-01-09T09:43:01.548Z,98684.16
2023-01-09T09:45:44.684Z,98678.00
2023-01-09T09:48:32.249Z,98670.59
2023-01-09T09:51:34.461Z,98683.50
2023-01-09T09:54:09.040Z,98670.28
2023-01-09T09:56:52.581Z,98672.13
2023-01-09T09:59:26.683Z,98673.47
2023-01-09T10:01:59.235Z,98670.03
2023-01-09T10:04:33.491Z,98666.09
2023-01-09T10:07:06.211Z,98676.41
2023-01-09T10:09:45.912Z,98676.97
2023-01-09T10:12:28.942Z,98672.50
2023-01-09T10:15:00.239Z,98669.63
2023-01-09T10:17:50.089Z,98669.84
2023-01-09T10:20:50.143Z,98674.34
2023-01-09T10:23:57.864Z,98669.06
2023-01-09T10:26:31.703Z,98670.63
2023-01-09T10:29:38.001Z,98671.47
2023-01-09T10:32:30.832Z,98672.25
2023-01-09T10:35:33.176Z,98669.34
2023-01-09T10:38:19.512Z,98676.22
2023-01-09T10:40:54.004Z,98676.78
2023-01-09T10:43:34.587Z,98678.91
2023-01-09T10:46:07.051Z,98667.78
2023-01-09T10:48:39.215Z,98665.94
2023-01-09T10:51:20.296Z,98667.78
2023-01-09T10:53:53.789Z,98673.88
2023-01-09T10:56:25.719Z,98671.22
2023-01-09T10:58:57.905Z,98668.28
2023-01-09T11:01:30.260Z,98670.16
2023-01-09T11:03:59.262Z,98674.63
2023-01-09T11:06:39.118Z,98680.66
2023-01-09T11:09:08.876Z,98675.06
2023-01-09T11:11:40.777Z,98678.50
2023-01-09T11:14:17.702Z,98675.59
2023-01-09T11:16:53.809Z,98671.94
2023-01-09T11:19:22.906Z,98680.19
2023-01-09T11:21:51.612Z,98672.78
2023-01-09T11:24:31.595Z,98660.91
2023-01-09T11:27:23.741Z,98666.47
2023-01-09T11:30:24.149Z,98674.13
2023-01-09T11:32:52.576Z,98672.84
2023-01-09T11:35:28.992Z,98689.00
2023-01-09T11:38:08.904Z,98671.28
2023-01-09T11:40:49.562Z,98671.81
2023-01-09T11:43:38.171Z,98675.03
2023-01-09T11:46:10.068Z,98670.25
2023-01-09T11:48:42.357Z,98669.47
2023-01-09T11:51:23.441Z,98680.59
2023-01-09T11:54:23.426Z,98678.72
2023-01-09T11:56:53.735Z,98688.22
2023-01-09T11:59:26.879Z,98675.81
2023-01-09T12:02:43.594Z,98667.59
2023-01-09T12:05:27.193Z,98670.22
2023-01-09T12:08:12.388Z,98672.09
2023-01-09T12:11:05.726Z,98677.63
2023-01-09T12:14:00.160Z,98680.00
2023-01-09T12:16:37.013Z,98675.28
2023-01-09T12:19:40.550Z,98680.31
2023-01-09T12:22:21.678Z,98680.31
2023-01-09T12:25:16.303Z,98672.63
2023-01-09T12:28:01.990Z,98676.06
2023-01-09T12:30:49.565Z,98670.22
2023-01-09T12:33:35.221Z,98670.50
2023-01-09T12:36:17.105Z,98680.00
2023-01-09T12:38:54.114Z,98666.53
2023-01-09T12:41:54.581Z,98671.28
2023-01-09T12:44:51.391Z,98670.72
2023-01-09T12:47:48.569Z,98667.78
2023-01-09T12:50:59.779Z,98666.22
2023-01-09T12:53:34.657Z,98659.09
2023-01-09T12:56:08.684Z,98676.50
2023-01-09T12:58:45.909Z,98669.41
2023-01-09T13:01:19.210Z,98678.66
2023-01-09T13:03:55.855Z,98665.72
2023-01-09T13:06:25.733Z,98677.63
2023-01-09T13:09:08.294Z,98679.22
2023-01-09T13:11:43.839Z,98681.59
2023-01-09T13:14:19.916Z,98680.81
2023-01-09T13:16:51.734Z,98682.38
2023-01-09T13:19:26.745Z,98684.78
2023-01-09T13:21:56.210Z,98688.22
2023-01-09T13:24:31.933Z,98697.75
2023-01-09T13:27:03.841Z,98694.88
2023-01-09T13:29:37.414Z,98691.41
2023-01-09T13:32:25.780Z,98694.56
2023-01-09T13:34:58.388Z,98700.88
2023-01-09T13:37:33.312Z,98698.50
2023-01-09T13:40:06.033Z,98705.63
2023-01-09T13:42:39.212Z,98700.59
2023-01-09T13:45:22.945Z,98704.84
2023-01-09T13:48:30.666Z,98706.63
2023-01-09T13:51:56.989Z,98700.56
2023-01-09T13:55:17.738Z,98705.28
2023-01-09T13:58:22.471Z,98705.28
2023-01-09T14:01:03.374Z,98706.09
2023-01-09T14:03:35.927Z,98710.84
2023-01-09T14:06:18.682Z,98718.00
2023-01-09T14:08:51.413Z,98730.41
2023-01-09T14:11:23.206Z,98711.91
2023-01-09T14:14:23.566Z,98716.09
2023-01-09T14:16:52.067Z,98719.84
2023-01-09T14:19:34.734Z,98727.25
2023-01-09T14:22:03.927Z,98738.13
2023-01-09T14:24:41.905Z,98732.59
2023-01-09T14:28:11.627Z,98751.84
2023-01-09T14:31:12.892Z,98737.84
2023-01-09T14:33:41.223Z,98742.63
2023-01-09T14:36:21.813Z,98735.50
2023-01-09T14:38:53.019Z,98744.22
2023-01-09T14:41:45.978Z,98756.88
2023-01-09T14:44:29.863Z,98749.69
2023-01-09T14:47:04.880Z,98748.09
2023-01-09T14:49:38.347Z,98770.03
2023-01-09T14:52:16.848Z,98765.25
2023-01-09T14:54:45.650Z,98769.72
2023-01-09T14:57:30.717Z,98780.56
2023-01-09T15:00:00.802Z,98783.19
2023-01-09T15:02:33.786Z,98782.63
2023-01-09T15:05:09.199Z,98783.66
2023-01-09T15:07:44.425Z,98793.44
2023-01-09T15:10:19.814Z,98812.16
2023-01-09T15:12:53.012Z,98820.63
2023-01-09T15:15:23.504Z,98821.13
2023-01-09T15:17:57.063Z,98824.81
2023-01-09T15:20:28.838Z,98830.09
2023-01-09T15:23:00.740Z,98833.53
2023-01-09T15:25:40.430Z,98826.41
2023-01-09T15:28:32.683Z,98831.13
2023-01-09T15:31:05.884Z,98829.53
2023-01-09T15:33:35.761Z,98817.94
2023-01-09T15:36:11.741Z,98811.84
2023-01-09T15:38:41.069Z,98811.84
2023-01-09T15:41:12.814Z,98810.00
2023-01-09T15:43:45.299Z,98817.41
2023-01-09T15:46:16.627Z,98825.31
2023-01-09T15:48:45.191Z,98823.16
2023-01-09T15:51:18.499Z,98843.44
2023-01-09T15:53:50.230Z,98842.09
2023-01-09T15:56:24.234Z,98847.59
2023-01-09T15:58:55.038Z,98854.72
2023-01-09T16:01:31.492Z,98853.94
2023-01-09T16:04:07.217Z,98852.09
2023-01-09T16:06:38.114Z,98859.78
2023-01-09T16:09:16.977Z,98868.50
2023-01-09T16:11:49.170Z,98872.72
2023-01-09T16:14:27.493Z,98873.78
2023-01-09T16:17:01.454Z,98870.34
2023-01-09T16:19:33.067Z,98886.19
2023-01-09T16:22:03.798Z,98887.22
2023-01-09T16:24:42.049Z,98891.97
2023-01-09T16:27:30.672Z,98905.38
2023-01-09T16:30:01.790Z,98908.84
2023-01-09T16:32:33.441Z,98917.78
2023-01-09T16:35:06.182Z,98920.69
2023-01-09T16:37:36.082Z,98925.97
2023-01-09T16:40:29.808Z,98921.66
2023-01-09T16:43:03.734Z,98927.97
2023-01-09T16:45:36.710Z,98928.47
2023-01-09T16:48:12.718Z,98936.13
2023-01-09T16:50:41.325Z,98921.13
2023-01-09T16:53:16.980Z,98925.81
2023-01-09T16:55:46.289Z,98932.16
2023-01-09T16:58:18.840Z,98929.53
2023-01-09T17:00:48.955Z,98943.25
2023-01-09T17:03:20.169Z,98940.63
2023-01-09T17:05:51.483Z,98953.81
2023-01-09T17:08:25.512Z,98948.78
2023-01-09T17:10:55.561Z,98961.19
2023-01-09T17:13:24.675Z,98960.41
2023-01-09T17:15:55.101Z,98963.03
2023-01-09T17:18:25.536Z,98982.88
2023-01-09T17:20:56.946Z,98973.34
2023-01-09T17:23:26.145Z,98968.63
2023-01-09T17:26:16.097Z,98976.56
2023-01-09T17:28:49.234Z,98976.78
2023-01-09T17:31:19.700Z,98974.72
2023-01-09T17:33:48.177Z,98984.97
2023-01-09T17:36:25.899Z,98989.13
2023-01-09T17:38:55.134Z,98994.63
2023-01-09T17:41:24.368Z,99010.16
2023-01-09T17:43:53.306Z,99019.38
2023-01-09T17:46:28.947Z,99026.13
2023-01-09T17:48:58.582Z,99030.56
2023-01-09T17:51:27.710Z,99031.81
2023-01-09T17:53:56.451Z,99031.03
2023-01-09T17:56:27.829Z,99032.88
2023-01-09T17:58:56.267Z,99046.28
2023-01-09T18:01:26.090Z,99051.25
2023-01-09T18:03:54.540Z,99060.47
2023-01-09T18:06:24.962Z,99065.16
2023-01-09T18:08:53.452Z,99085.22
2023-01-09T18:11:23.386Z,99095.78
2023-01-09T18:13:54.687Z,99095.78
2023-01-09T18:16:27.936Z,99108.75
2023-01-09T18:18:59.354Z,99108.97
2023-01-09T18:21:30.737Z,99125.13
2023-01-09T18:24:01.448Z,99131.56
2023-01-09T18:26:29.871Z,99133.38
2023-01-09T18:29:00.558Z,99149.00
2023-01-09T18:31:31.698Z,99143.72
2023-01-09T18:34:02.566Z,99163.00
2023-01-09T18:36:31.109Z,99161.16
2023-01-09T18:39:02.403Z,99168.03
2023-01-09T18:41:32.061Z,99171.47
2023-01-09T18:44:02.011Z,99179.41
2023-01-09T18:46:34.881Z,99191.31
2023-01-09T18:49:05.785Z,99197.38
2023-01-09T18:51:36.392Z,99199.00
2023-01-09T18:54:08.137Z,99197.16
2023-01-09T18:56:39.005Z,99205.41
2023-01-09T18:59:07.707Z,99211.50
2023-01-09T19:01:37.484Z,99211.03
2023-01-09T19:04:06.258Z,99218.69
2023-01-09T19:06:34.834Z,99216.63
2023-01-09T19:09:03.426Z,99223.50
2023-01-09T19:11:31.738Z,99225.09
2023-01-09T19:14:00.111Z,99232.00
2023-01-09T19:16:28.436Z,99232.56
2023-01-09T19:18:58.233Z,99239.94
2023-01-09T19:21:27.297Z,99243.13
2023-01-09T19:23:55.816Z,99257.13
2023-01-09T19:26:26.386Z,99256.31
2023-01-09T19:28:57.611Z,99248.66
2023-01-09T19:31:28.431Z,99258.41
2023-01-09T19:33:59.045Z,99263.69
2023-01-09T19:36:28.968Z,99262.88
2023-01-09T19:38:57.983Z,99260.22
2023-01-09T19:41:27.137Z,99263.44
2023-01-09T19:43:55.656Z,99276.91
2023-01-09T19:46:27.195Z,99282.97
2023-01-09T19:48:58.996Z,99281.13
2023-01-09T19:51:27.379Z,99284.81
2023-01-09T19:56:29.602Z,99299.81
2023-01-09T19:59:00.599Z,99293.75
2023-01-09T20:01:31.456Z,99297.19
2023-01-09T20:04:05.156Z,99304.31
2023-01-09T20:06:33.870Z,99305.94
2023-01-09T20:09:05.103Z,99314.66
2023-01-09T20:11:33.950Z,99314.41
2023-01-09T20:14:02.616Z,99324.16
2023-01-09T20:16:42.523Z,99320.16
2023-01-09T20:19:14.160Z,99315.66
2023-01-09T20:21:43.588Z,99323.84
2023-01-09T20:24:15.156Z,99324.63
2023-01-09T20:26:43.983Z,99322.00
2023-01-09T20:29:12.717Z,99330.50
2023-01-09T20:31:41.152Z,99330.25
2023-01-09T20:34:12.574Z,99326.56
2023-01-09T20:36:41.037Z,99334.28
2023-01-09T20:39:12.352Z,99343.78
2023-01-09T20:41:41.102Z,99348.03
2023-01-09T20:44:13.050Z,99351.50
2023-01-09T20:46:44.763Z,99352.03
2023-01-09T20:49:18.048Z,99352.03
2023-01-09T20:51:50.491Z,99366.03
2023-01-09T20:54:22.297Z,99374.22
2023-01-09T20:56:50.849Z,99373.97
2023-01-09T20:59:21.978Z,99373.97
2023-01-09T21:01:50.759Z,99372.13
2023-01-09T21:04:20.818Z,99385.34
2023-01-09T21:06:50.329Z,99380.06
2023-01-09T21:09:18.981Z,99379.25
2023-01-09T21:11:47.329Z,99377.66
2023-01-09T21:14:15.669Z,99387.16
2023-01-09T21:16:53.690Z,99384.78
2023-01-09T21:19:24.235Z,99386.63
2023-01-09T21:21:53.493Z,99387.41
2023-01-09T21:24:22.248Z,99393.50
2023-01-09T21:26:50.594Z,99395.34
2023-01-09T21:29:18.968Z,99399.81
2023-01-09T21:31:47.397Z,99397.97
2023-01-09T21:34:20.122Z,99404.06
2023-01-09T21:36:50.374Z,99403.25
2023-01-09T21:39:19.954Z,99404.06
2023-01-09T21:42:05.952Z,99408.53
2023-01-09T21:44:51.993Z,99412.22
2023-01-09T21:47:20.319Z,99422.44
2023-01-09T21:49:48.856Z,99432.19
2023-01-09T21:52:19.361Z,99428.97
2023-01-09T21:54:47.698Z,99422.09
2023-01-09T21:57:16.039Z,99428.19
2023-01-09T21:59:44.903Z,99426.00
2023-01-09T22:02:15.824Z,99434.97
2023-01-09T22:04:48.784Z,99432.78
2023-01-09T22:07:18.989Z,99437.25
2023-01-09T22:09:47.308Z,99449.88
2023-01-09T22:12:15.682Z,99454.34
2023-01-09T22:14:44.232Z,99459.63
2023-01-09T22:17:12.577Z,99464.13
2023-01-09T22:19:40.921Z,99466.16
2023-01-09T22:22:09.266Z,99473.88
2023-01-09T22:24:39.117Z,99484.44
2023-01-09T22:27:07.499Z,99486.50
2023-01-09T22:29:35.895Z,99495.22
2023-01-09T22:32:04.614Z,99498.88
2023-01-09T22:34:32.940Z,99494.88
2023-01-09T22:37:01.423Z,99507.06
2023-01-09T22:39:29.837Z,99510.50
2023-01-09T22:41:59.536Z,99515.78
2023-01-09T22:44:27.901Z,99510.50
2023-01-09T22:46:57.325Z,99518.97
2023-01-09T22:49:29.962Z,99545.38
2023-01-09T22:51:58.655Z,99534.47
2023-01-09T22:54:27.011Z,99539.72
2023-01-09T22:56:55.308Z,99544.22
2023-01-09T22:59:25.422Z,99545.81
2023-01-09T23:01:54.233Z,99546.66
2023-01-09T23:04:22.677Z,99550.09
2023-01-09T23:06:51.116Z,99550.88
2023-01-09T23:09:19.583Z,99556.97
2023-01-09T23:12:03.136Z,99559.59
2023-01-09T23:14:35.926Z,99565.13
2023-01-09T23:17:05.235Z,99560.84
2023-01-09T23:19:36.258Z,99567.75
2023-01-09T23:22:05.498Z,99578.31
2023-01-09T23:24:34.402Z,99571.41
2023-01-09T23:27:02.759Z,99578.53
2023-01-09T23:29:32.595Z,99584.63
2023-01-09T23:32:00.959Z,99588.88
2023-01-09T23:34:29.307Z,99594.97
2023-01-09T23:36:57.832Z,99593.13
2023-01-09T23:39:26.517Z,99600.00
2023-01-09T23:42:12.385Z,99598.16
2023-01-09T23:44:42.062Z,99598.41
2023-01-09T23:47:10.379Z,99603.69
2023-01-09T23:49:38.845Z,99607.94
2023-01-09T23:52:08.652Z,99613.22
2023-01-09T23:54:37.762Z,99618.50
2023-01-09T23:57:06.320Z,99633.53
2023-01-09T23:59:34.999Z,99630.88
